| time (UTC) | temp C | wind direction | speed KPH | gust KPH | rain 1hr cm | rain 24hr cm | rain mn cm | humidity % | barometer mb |
| 20260510220012 | 23 | 81 | 30.6 | 37.0 | 0.00 | 0.00 | 0.00 | 31 | 1020.3 |
| 20260510214512 | 24 | 79 | 24.1 | 33.8 | 0.00 | 0.00 | 0.00 | 30 | 1020.3 |
| 20260510213010 | 24 | 86 | 24.1 | 33.8 | 0.00 | 0.00 | 0.00 | 28 | 1020.1 |
| 20260510211515 | 25 | 91 | 24.1 | 35.4 | 0.00 | 0.00 | 0.00 | 27 | 1020.2 |
| 20260510210009 | 26 | 65 | 24.1 | 33.8 | 0.00 | 0.00 | 0.00 | 25 | 1020.1 |
| 20260510204511 | 25 | 72 | 20.9 | 32.2 | 0.00 | 0.00 | 0.00 | 25 | 1020.2 |
| 20260510203007 | 25 | 107 | 20.9 | 37.0 | 0.00 | 0.00 | 0.00 | 25 | 1020.1 |
| 20260510201504 | 26 | 119 | 17.7 | 30.6 | 0.00 | 0.00 | 0.00 | 24 | 1020.1 |
| 20260510200002 | 25 | 105 | 19.3 | 27.4 | 0.00 | 0.00 | 0.00 | 23 | 1020.3 |
| 20260510194609 | 25 | 84 | 16.1 | 29.0 | 0.00 | 0.00 | 0.00 | 24 | 1020.3 |
| 20260510193113 | 25 | 79 | 19.3 | 32.2 | 0.00 | 0.00 | 0.00 | 25 | 1020.4 |
| 20260510191552 | 25 | 101 | 12.9 | 27.4 | 0.00 | 0.00 | 0.00 | 24 | 1020.6 |
| 20260510190054 | 25 | 90 | 22.5 | 30.6 | 0.00 | 0.00 | 0.00 | 26 | 1020.6 |
| 20260510184551 | 25 | 108 | 17.7 | 30.6 | 0.00 | 0.00 | 0.00 | 24 | 1020.7 |
| 20260510183041 | 24 | 91 | 16.1 | 29.0 | 0.00 | 0.00 | 0.00 | 24 | 1020.7 |
| 20260510181539 | 23 | 103 | 20.9 | 30.6 | 0.00 | 0.00 | 0.00 | 26 | 1020.7 |
| 20260510180035 | 23 | 95 | 16.1 | 30.6 | 0.00 | 0.00 | 0.00 | 26 | 1020.7 |
| 20260510174530 | 23 | 87 | 24.1 | 32.2 | 0.00 | 0.00 | 0.00 | 27 | 1020.7 |
| 20260510173025 | 23 | 99 | 22.5 | 29.0 | 0.00 | 0.00 | 0.00 | 27 | 1020.8 |
| 20260510171521 | 22 | 87 | 24.1 | 33.8 | 0.00 | 0.00 | 0.00 | 27 | 1020.7 |
| 20260510170017 | 22 | 69 | 17.7 | 29.0 | 0.00 | 0.00 | 0.00 | 28 | 1020.8 |
| 20260510164513 | 21 | 94 | 19.3 | 25.7 | 0.00 | 0.00 | 0.00 | 28 | 1020.5 |
| 20260510163011 | 21 | 113 | 19.3 | 27.4 | 0.00 | 0.00 | 0.00 | 28 | 1020.4 |
| 20260510161520 | 20 | 108 | 12.9 | 22.5 | 0.00 | 0.00 | 0.00 | 30 | 1020.1 |
| 20260510160005 | 21 | 95 | 6.4 | 20.9 | 0.00 | 0.00 | 0.00 | 29 | 1020.0 |
| 20260510154504 | 20 | 85 | 11.3 | 20.9 | 0.00 | 0.00 | 0.00 | 29 | 1019.8 |
| 20260510153005 | 19 | 86 | 19.3 | 27.4 | 0.00 | 0.00 | 0.00 | 31 | 1019.7 |
| 20260510151509 | 19 | 118 | 22.5 | 35.4 | 0.00 | 0.00 | 0.00 | 31 | 1019.7 |
| 20260510150002 | 20 | 116 | 16.1 | 24.1 | 0.00 | 0.00 | 0.00 | 30 | 1020.0 |
| 20260510144620 | 19 | 86 | 9.7 | 17.7 | 0.00 | 0.00 | 0.00 | 30 | 1020.9 |
| 20260510143059 | 19 | 72 | 12.9 | 20.9 | 0.00 | 0.00 | 0.00 | 29 | 1021.6 |
| 20260510141606 | 20 | 45 | 16.1 | 30.6 | 0.00 | 0.00 | 0.00 | 28 | 1021.5 |
| 20260510140059 | 20 | 48 | 20.9 | 32.2 | 0.00 | 0.00 | 0.00 | 26 | 1021.4 |
| 20260510134605 | 20 | 52 | 19.3 | 29.0 | 0.00 | 0.00 | 0.00 | 26 | 1021.1 |
| 20260510133050 | 19 | 58 | 22.5 | 32.2 | 0.00 | 0.00 | 0.00 | 26 | 1020.2 |
| 20260510131549 | 19 | 46 | 12.9 | 20.9 | 0.00 | 0.00 | 0.00 | 25 | 1019.9 |
| 20260510130047 | 19 | 56 | 12.9 | 17.7 | 0.00 | 0.00 | 0.00 | 25 | 1019.9 |
| 20260510124545 | 17 | 62 | 0.0 | 0.0 | 0.00 | 0.00 | 0.00 | 29 | 1019.5 |
| 20260510123044 | 16 | 46 | 0.0 | 8.0 | 0.00 | 0.00 | 0.00 | 28 | 1019.1 |
| 20260510121542 | 15 | 43 | 9.7 | 20.9 | 0.00 | 0.00 | 0.00 | 26 | 1018.6 |
| 20260510120037 | 15 | 17 | 16.1 | 19.3 | 0.00 | 0.00 | 0.00 | 25 | 1018.4 |
| 20260510114559 | 15 | 336 | 8.0 | 16.1 | 0.00 | 0.00 | 0.00 | 25 | 1018.3 |
| 20260510113045 | 15 | 74 | 0.0 | 4.8 | 0.00 | 0.00 | 0.00 | 26 | 1017.6 |
| 20260510111533 | 15 | 36 | 4.8 | 9.7 | 0.00 | 0.00 | 0.00 | 25 | 1017.4 |
| 20260510110038 | 15 | 301 | 0.0 | 3.2 | 0.00 | 0.00 | 0.00 | 24 | 1016.9 |
| 20260510104527 | 16 | 53 | 0.0 | 6.4 | 0.00 | 0.00 | 0.00 | 21 | 1016.7 |
| 20260510103024 | 17 | 350 | 0.0 | 0.0 | 0.00 | 0.00 | 0.00 | 20 | 1016.6 |
| 20260510101523 | 17 | 304 | 0.0 | 3.2 | 0.00 | 0.00 | 0.00 | 21 | 1016.3 |
| 20260510100030 | 15 | 301 | 1.6 | 6.4 | 0.00 | 0.00 | 0.00 | 24 | 1016.1 |
| 20260510094517 | 13 | 105 | 0.0 | 1.6 | 0.00 | 0.00 | 0.00 | 30 | 1015.9 |
| 20260510093014 | 14 | 155 | 0.0 | 0.0 | 0.00 | 0.00 | 0.00 | 28 | 1015.5 |
| 20260510091512 | 14 | 138 | 0.0 | 0.0 | 0.00 | 0.00 | 0.00 | 28 | 1015.6 |
| 20260510090011 | 13 | 74 | 0.0 | 3.2 | 0.00 | 0.00 | 0.00 | 27 | 1015.3 |
| 20260510084507 | 16 | 64 | 0.0 | 0.0 | 0.00 | 0.00 | 0.00 | 26 | 1015.0 |
| 20260510083013 | 15 | 45 | 0.0 | 0.0 | 0.00 | 0.00 | 0.00 | 26 | 1014.8 |
| 20260510081600 | 17 | 267 | 0.0 | 0.0 | 0.00 | 0.00 | 0.00 | 24 | 1014.9 |
| 20260510080101 | 17 | 146 | 0.0 | 3.2 | 0.00 | 0.00 | 0.00 | 23 | 1014.9 |
| 20260510074605 | 17 | 133 | 1.6 | 4.8 | 0.00 | 0.00 | 0.00 | 23 | 1014.9 |
| 20260510073050 | 18 | 152 | 0.0 | 8.0 | 0.00 | 0.00 | 0.00 | 21 | 1014.9 |
| 20260510071549 | 20 | 94 | 1.6 | 9.7 | 0.00 | 0.00 | 0.00 | 19 | 1014.9 |
| 20260510070103 | 19 | 107 | 3.2 | 6.4 | 0.00 | 0.00 | 0.00 | 20 | 1015.1 |
| 20260510064549 | 19 | 105 | 1.6 | 8.0 | 0.00 | 0.00 | 0.00 | 20 | 1015.0 |
| 20260510063043 | 20 | 36 | 1.6 | 14.5 | 0.00 | 0.00 | 0.00 | 18 | 1015.3 |
| 20260510061539 | 20 | 113 | 0.0 | 1.6 | 0.00 | 0.00 | 0.00 | 20 | 1014.9 |
| 20260510060040 | 20 | 23 | 0.0 | 0.0 | 0.00 | 0.00 | 0.00 | 19 | 1015.0 |
| 20260510054535 | 21 | 277 | 0.0 | 0.0 | 0.00 | 0.00 | 0.00 | 17 | 1015.1 |
| 20260510053034 | 22 | 82 | 0.0 | 0.0 | 0.00 | 0.00 | 0.00 | 17 | 1015.0 |
| 20260510051535 | 22 | 356 | 0.0 | 0.0 | 0.00 | 0.00 | 0.00 | 16 | 1015.1 |
| 20260510050035 | 20 | 185 | 0.0 | 0.0 | 0.00 | 0.00 | 0.00 | 20 | 1015.1 |
| 20260510044532 | 20 | 56 | 0.0 | 1.6 | 0.00 | 0.00 | 0.00 | 20 | 1014.9 |
| 20260510043032 | 21 | 112 | 0.0 | 0.0 | 0.00 | 0.00 | 0.00 | 19 | 1014.9 |
| 20260510041545 | 21 | 85 | 0.0 | 0.0 | 0.00 | 0.00 | 0.00 | 18 | 1014.7 |
| 20260510040033 | 21 | 358 | 0.0 | 0.0 | 0.00 | 0.00 | 0.00 | 17 | 1014.7 |
| 20260510034530 | 22 | 197 | 0.0 | 0.0 | 0.00 | 0.00 | 0.00 | 16 | 1014.6 |
| 20260510033030 | 22 | 186 | 0.0 | 1.6 | 0.00 | 0.00 | 0.00 | 15 | 1014.5 |
| 20260510031533 | 23 | 230 | 0.0 | 0.0 | 0.00 | 0.00 | 0.00 | 15 | 1014.2 |
| 20260510030029 | 23 | 188 | 0.0 | 8.0 | 0.00 | 0.00 | 0.00 | 14 | 1014.0 |
| 20260510024530 | 24 | 159 | 4.8 | 16.1 | 0.00 | 0.00 | 0.00 | 13 | 1013.6 |
| 20260510023028 | 25 | 191 | 6.4 | 16.1 | 0.00 | 0.00 | 0.00 | 12 | 1013.3 |
| 20260510021535 | 25 | 212 | 4.8 | 17.7 | 0.00 | 0.00 | 0.00 | 12 | 1013.0 |
| 20260510020031 | 26 | 247 | 8.0 | 20.9 | 0.00 | 0.00 | 0.00 | 11 | 1012.9 |
| 20260510014531 | 26 | 247 | 4.8 | 14.5 | 0.00 | 0.00 | 0.00 | 11 | 1012.8 |
| 20260510013029 | 26 | 214 | 1.6 | 11.3 | 0.00 | 0.00 | 0.00 | 11 | 1012.7 |
| 20260510011526 | 26 | 222 | 1.6 | 17.7 | 0.00 | 0.00 | 0.00 | 11 | 1012.6 |
| 20260510010025 | 27 | 218 | 11.3 | 32.2 | 0.00 | 0.00 | 0.00 | 10 | 1012.5 |
| 20260510004524 | 27 | 250 | 14.5 | 22.5 | 0.00 | 0.00 | 0.00 | 10 | 1012.6 |
| 20260510003025 | 27 | 235 | 9.7 | 37.0 | 0.00 | 0.00 | 0.00 | 10 | 1012.6 |
| 20260510001535 | 28 | 228 | 14.5 | 20.9 | 0.00 | 0.00 | 0.00 | 9 | 1012.4 |
| 20260510000024 | 28 | 225 | 11.3 | 20.9 | 0.00 | 0.00 | 0.00 | 9 | 1012.4 |
| 20260509234604 | 28 | 278 | 0.0 | 9.7 | 0.00 | 0.00 | 0.00 | 9 | 1012.4 |
| 20260509233058 | 29 | 242 | 6.4 | 17.7 | 0.00 | 0.00 | 0.00 | 9 | 1012.6 |
| 20260509231552 | 29 | 260 | 0.0 | 11.3 | 0.00 | 0.00 | 0.00 | 9 | 1012.7 |
| 20260509224601 | 30 | 247 | 1.6 | 11.3 | 0.00 | 0.00 | 0.00 | 9 | 1012.9 |
| 20260509223028 | 30 | 208 | 9.7 | 20.9 | 0.00 | 0.00 | 0.00 | 8 | 1013.2 |
| 20260509221624 | 30 | 206 | 4.8 | 22.5 | 0.00 | 0.00 | 0.00 | 8 | 1013.3 |